Samus Swan — 9HA2333 — position and weather

sailwx.info

Track history (hours):
 
Tides and Currents Weather Stations Pressure Air Temp Water Temp Dewpoint Dewpoint Depression Visibility Wind Speed Wind Dir Waves Ship Positions

Samus Swan

Last reported at 2014-Oct-29 15:29 UTC. Time now 2014-Nov-01 03:21 UTC.
Position N 38°01' E 015°32'.

Length 106 m; draft 5 m.

Type: Ship. MMSI: 248363000.

Date/timePositionNaut miles runAvg speedWind from/ knotsBaromVisibWave heightAir tempDewpointWater temp
2014-Oct-29 15:29N 38°01' E 015°32'1213.5
2014-Oct-29 14:33N 38°13' E 015°36'1110.7
2014-Oct-29 13:32N 38°24' E 015°34'48412.4
2014-Oct-27 22:33N 42°49' E 006°41'1212.3
2014-Oct-27 21:33N 42°47' E 006°25'1211.9
2014-Oct-27 20:33N 42°47' E 006°09'1212.2
2014-Oct-27 19:33N 42°50' E 005°53'1312.6
2014-Oct-27 18:33N 42°54' E 005°36'2512.5
2014-Oct-27 16:33N 43°04' E 005°05'1313.0
2014-Oct-27 15:33N 43°17' E 004°59'8 8.3
2014-Oct-27 14:33N 43°25' E 004°55'0 0.0
2014-Oct-27 13:30N 43°25' E 004°55'0 0.0
2014-Oct-27 12:33N 43°25' E 004°55'0 0.0
2014-Oct-27 11:33N 43°25' E 004°55'0 0.0
2014-Oct-27 10:33N 43°24' E 004°55'0 0.0
2014-Oct-27 09:30N 43°24' E 004°55'0 0.0
2014-Oct-27 08:33N 43°24' E 004°55'0 0.0
2014-Oct-27 07:33N 43°24' E 004°55'0 0.0
2014-Oct-27 06:33N 43°24' E 004°55'0 0.0
2014-Oct-27 05:33N 43°24' E 004°55'0 0.0
2014-Oct-27 04:33N 43°24' E 004°55'0 0.0
2014-Oct-27 03:33N 43°24' E 004°55'0 0.0
2014-Oct-27 02:33N 43°24' E 004°55'0 0.0
2014-Oct-27 01:33N 43°24' E 004°55'0 0.0
2014-Oct-27 00:33N 43°24' E 004°55'0 0.0
2014-Oct-26 23:33N 43°24' E 004°55'0 0.0
2014-Oct-26 22:33N 43°24' E 004°55'0 0.1
2014-Oct-26 21:33N 43°24' E 004°55'0 0.1
2014-Oct-26 20:30N 43°24' E 004°55'0 0.0
2014-Oct-26 19:33N 43°24' E 004°55'0 0.0
2014-Oct-26 18:33N 43°24' E 004°55'0 0.0
2014-Oct-26 17:33N 43°25' E 004°55'0 0.0
2014-Oct-26 16:33N 43°25' E 004°55'0 0.0
2014-Oct-26 15:33N 43°25' E 004°55'0 0.0
2014-Oct-26 14:33N 43°24' E 004°55'0 0.0
2014-Oct-26 13:33N 43°25' E 004°55'0 0.1
2014-Oct-26 12:33N 43°24' E 004°55'0 0.0
2014-Oct-26 11:30N 43°24' E 004°55'0 0.0
2014-Oct-26 10:33N 43°24' E 004°55'0 0.0
2014-Oct-26 09:33N 43°24' E 004°55'0 0.0
2014-Oct-26 08:33N 43°24' E 004°55'0 0.0
2014-Oct-26 07:33N 43°24' E 004°55'0 0.0
2014-Oct-26 06:33N 43°24' E 004°55'0 0.0
2014-Oct-26 05:33N 43°24' E 004°55'0 0.0
2014-Oct-26 04:33N 43°24' E 004°55'0 0.0
2014-Oct-26 03:33N 43°24' E 004°55'0 0.0
2014-Oct-26 02:33N 43°24' E 004°55'0 0.0
2014-Oct-26 01:33N 43°24' E 004°55'0 0.0
2014-Oct-26 00:33N 43°24' E 004°55'0 0.0
2014-Oct-25 23:33N 43°24' E 004°55'0 0.0
2014-Oct-25 22:33N 43°24' E 004°55'0 0.0
2014-Oct-25 21:33N 43°24' E 004°55'4 3.6
2014-Oct-25 20:32N 43°25' E 004°50'0 0.0
2014-Oct-25 19:32N 43°25' E 004°50'0 0.0
2014-Oct-25 18:32N 43°25' E 004°50'0 0.0
2014-Oct-25 17:32N 43°25' E 004°50'0 0.0
2014-Oct-25 16:32N 43°25' E 004°50'0 0.0
2014-Oct-25 15:32N 43°25' E 004°50'0 0.0
2014-Oct-25 14:32N 43°25' E 004°50'0 0.0
2014-Oct-25 13:29N 43°25' E 004°50'0 0.0
2014-Oct-25 12:29N 43°25' E 004°50'0 0.0
2014-Oct-25 11:32N 43°25' E 004°50'0 0.0
2014-Oct-25 10:31N 43°25' E 004°50'0 0.0
2014-Oct-25 09:31N 43°25' E 004°50'0 0.0
2014-Oct-25 08:31N 43°25' E 004°50'0 0.0
2014-Oct-25 07:31N 43°25' E 004°50'0 0.0
2014-Oct-25 06:31N 43°25' E 004°50'0 0.0
2014-Oct-25 05:31N 43°25' E 004°50'0 0.0
2014-Oct-25 04:31N 43°25' E 004°50'0 0.0
2014-Oct-25 03:31N 43°25' E 004°50'0 0.0
2014-Oct-25 02:31N 43°25' E 004°50'0 0.0
2014-Oct-25 01:31N 43°25' E 004°50'0 0.0
2014-Oct-25 00:31N 43°25' E 004°50'1 1.5
2014-Oct-24 23:34N 43°24' E 004°52'3 3.1
2014-Oct-24 22:31N 43°24' E 004°56'0 0.0
2014-Oct-24 21:31N 43°24' E 004°56'0 0.0
2014-Oct-24 20:31N 43°24' E 004°56'0 0.0
2014-Oct-24 19:31N 43°24' E 004°56'0 0.0
2014-Oct-24 18:31N 43°24' E 004°56'0 0.0
2014-Oct-24 17:31N 43°24' E 004°56'0 0.0
2014-Oct-24 16:31N 43°24' E 004°56'0 0.0
2014-Oct-24 15:31N 43°24' E 004°56'0 0.0
2014-Oct-24 14:31N 43°24' E 004°56'0 0.0
2014-Oct-24 13:31N 43°24' E 004°56'0 0.0
2014-Oct-24 12:31N 43°24' E 004°56'0 0.0
2014-Oct-24 11:31N 43°24' E 004°56'0 0.0
2014-Oct-24 10:31N 43°24' E 004°56'0 0.0
2014-Oct-24 09:28N 43°24' E 004°56'0 0.0
2014-Oct-24 08:31N 43°24' E 004°56'0 0.0
2014-Oct-24 07:31N 43°24' E 004°56'0 0.0
2014-Oct-24 06:31N 43°24' E 004°56'0 0.0
2014-Oct-24 05:31N 43°24' E 004°56'0 0.0
2014-Oct-24 04:31N 43°24' E 004°56'0 0.0
2014-Oct-24 03:31N 43°24' E 004°56'0 0.0
2014-Oct-24 02:28N 43°24' E 004°56'0 0.0
2014-Oct-24 01:31N 43°24' E 004°56'0 0.0
2014-Oct-24 00:31N 43°24' E 004°56'0 0.0
2014-Oct-23 23:31N 43°24' E 004°56'0 0.0
2014-Oct-23 22:31N 43°24' E 004°56'0 0.0
2014-Oct-23 21:31N 43°24' E 004°56'0 0.0
2014-Oct-23 20:31N 43°24' E 004°56'0 0.0
2014-Oct-23 19:31N 43°24' E 004°56'4 4.1
2014-Oct-23 18:33N 43°21' E 004°58'1010.2
2014-Oct-23 17:33N 43°11' E 005°02'1311.1
2014-Oct-23 16:25N 43°09' E 004°45'1211.2
2014-Oct-23 15:23N 43°07' E 004°30'1112.0
2014-Oct-23 14:28N 43°05' E 004°15'1112.1
2014-Oct-23 13:33N 43°04' E 003°60'1513.0
2014-Oct-23 12:23N 43°01' E 003°39'911.2
2014-Oct-23 11:34N 42°53' E 003°35'1110.6
2014-Oct-23 10:33N 42°43' E 003°30'1210.2
2014-Oct-23 09:24N 42°31' E 003°27'8 9.5
2014-Oct-23 08:33N 42°23' E 003°28'9 8.6
2014-Oct-23 07:31N 42°14' E 003°28'8 7.7
2014-Oct-23 06:27N 42°06' E 003°30'30111.2
2014-Oct-22 03:33N 37°56' W 000°11'1412.7
2014-Oct-22 02:27N 37°45' W 000°21'1512.6
2014-Oct-22 01:16N 37°32' W 000°32'1312.4
2014-Oct-22 00:14N 37°24' W 000°44'912.8
2014-Oct-21 23:33N 37°18' W 000°52'1412.9
2014-Oct-21 22:29N 37°09' W 001°05'3913.0
2014-Oct-21 19:29N 36°44' W 001°41'17513.2
2014-Oct-21 06:13N 36°00' W 005°12'913.2
2014-Oct-21 05:32N 35°58' W 005°23'6813.2
2014-Oct-21 00:25N 36°00' W 006°46'1112.8
2014-Oct-20 23:33N 36°03' W 006°60'1412.5
2014-Oct-20 22:26N 36°07' W 007°16'1412.8
2014-Oct-20 21:19N 36°10' W 007°33'1013.2
2014-Oct-20 20:33N 36°12' W 007°46'6412.8
2014-Oct-20 15:33N 36°27' W 009°02'7011.0
2014-Oct-20 09:11N 37°27' W 009°49'813.0
2014-Oct-20 08:33N 37°35' W 009°52'1313.0
2014-Oct-20 07:33N 37°48' W 009°55'1312.9
2014-Oct-20 06:33N 37°60' W 009°60'1312.8
2014-Oct-20 05:33N 38°12' W 010°05'1712.8
2014-Oct-20 04:16N 38°28' W 010°08'912.9
2014-Oct-20 03:32N 38°38' W 010°11'1313.3
2014-Oct-20 02:33N 38°50' W 010°12'  
Track history (hours):
 
Tides and Currents Weather Stations Pressure Air Temp Water Temp Dewpoint Dewpoint Depression Visibility Wind Speed Wind Dir Waves Ship Positions

Samus Swan

Last reported at 2014-Oct-29 15:29 UTC. Time now 2014-Nov-01 03:21 UTC.
Position N 38°01' E 015°32'.

Length 106 m; draft 5 m.

Type: Ship. MMSI: 248363000.

Date/timePositionNaut miles runAvg speedWind from/ knotsBaromVisibWave heightAir tempDewpointWater temp
2014-Oct-29 15:29N 38°01' E 015°32'1213.5
2014-Oct-29 14:33N 38°13' E 015°36'1110.7
2014-Oct-29 13:32N 38°24' E 015°34'48412.4
2014-Oct-27 22:33N 42°49' E 006°41'1212.3
2014-Oct-27 21:33N 42°47' E 006°25'1211.9
2014-Oct-27 20:33N 42°47' E 006°09'1212.2
2014-Oct-27 19:33N 42°50' E 005°53'1312.6
2014-Oct-27 18:33N 42°54' E 005°36'2512.5
2014-Oct-27 16:33N 43°04' E 005°05'1313.0
2014-Oct-27 15:33N 43°17' E 004°59'8 8.3
2014-Oct-27 14:33N 43°25' E 004°55'0 0.0
2014-Oct-27 13:30N 43°25' E 004°55'0 0.0
2014-Oct-27 12:33N 43°25' E 004°55'0 0.0
2014-Oct-27 11:33N 43°25' E 004°55'0 0.0
2014-Oct-27 10:33N 43°24' E 004°55'0 0.0
2014-Oct-27 09:30N 43°24' E 004°55'0 0.0
2014-Oct-27 08:33N 43°24' E 004°55'0 0.0
2014-Oct-27 07:33N 43°24' E 004°55'0 0.0
2014-Oct-27 06:33N 43°24' E 004°55'0 0.0
2014-Oct-27 05:33N 43°24' E 004°55'0 0.0
2014-Oct-27 04:33N 43°24' E 004°55'0 0.0
2014-Oct-27 03:33N 43°24' E 004°55'0 0.0
2014-Oct-27 02:33N 43°24' E 004°55'0 0.0
2014-Oct-27 01:33N 43°24' E 004°55'0 0.0
2014-Oct-27 00:33N 43°24' E 004°55'0 0.0
2014-Oct-26 23:33N 43°24' E 004°55'0 0.0
2014-Oct-26 22:33N 43°24' E 004°55'0 0.1
2014-Oct-26 21:33N 43°24' E 004°55'0 0.1
2014-Oct-26 20:30N 43°24' E 004°55'0 0.0
2014-Oct-26 19:33N 43°24' E 004°55'0 0.0
2014-Oct-26 18:33N 43°24' E 004°55'0 0.0
2014-Oct-26 17:33N 43°25' E 004°55'0 0.0
2014-Oct-26 16:33N 43°25' E 004°55'0 0.0
2014-Oct-26 15:33N 43°25' E 004°55'0 0.0
2014-Oct-26 14:33N 43°24' E 004°55'0 0.0
2014-Oct-26 13:33N 43°25' E 004°55'0 0.1
2014-Oct-26 12:33N 43°24' E 004°55'0 0.0
2014-Oct-26 11:30N 43°24' E 004°55'0 0.0
2014-Oct-26 10:33N 43°24' E 004°55'0 0.0
2014-Oct-26 09:33N 43°24' E 004°55'0 0.0
2014-Oct-26 08:33N 43°24' E 004°55'0 0.0
2014-Oct-26 07:33N 43°24' E 004°55'0 0.0
2014-Oct-26 06:33N 43°24' E 004°55'0 0.0
2014-Oct-26 05:33N 43°24' E 004°55'0 0.0
2014-Oct-26 04:33N 43°24' E 004°55'0 0.0
2014-Oct-26 03:33N 43°24' E 004°55'0 0.0
2014-Oct-26 02:33N 43°24' E 004°55'0 0.0
2014-Oct-26 01:33N 43°24' E 004°55'0 0.0
2014-Oct-26 00:33N 43°24' E 004°55'0 0.0
2014-Oct-25 23:33N 43°24' E 004°55'0 0.0
2014-Oct-25 22:33N 43°24' E 004°55'0 0.0
2014-Oct-25 21:33N 43°24' E 004°55'4 3.6
2014-Oct-25 20:32N 43°25' E 004°50'0 0.0
2014-Oct-25 19:32N 43°25' E 004°50'0 0.0
2014-Oct-25 18:32N 43°25' E 004°50'0 0.0
2014-Oct-25 17:32N 43°25' E 004°50'0 0.0
2014-Oct-25 16:32N 43°25' E 004°50'0 0.0
2014-Oct-25 15:32N 43°25' E 004°50'0 0.0
2014-Oct-25 14:32N 43°25' E 004°50'0 0.0
2014-Oct-25 13:29N 43°25' E 004°50'0 0.0
2014-Oct-25 12:29N 43°25' E 004°50'0 0.0
2014-Oct-25 11:32N 43°25' E 004°50'0 0.0
2014-Oct-25 10:31N 43°25' E 004°50'0 0.0
2014-Oct-25 09:31N 43°25' E 004°50'0 0.0
2014-Oct-25 08:31N 43°25' E 004°50'0 0.0
2014-Oct-25 07:31N 43°25' E 004°50'0 0.0
2014-Oct-25 06:31N 43°25' E 004°50'0 0.0
2014-Oct-25 05:31N 43°25' E 004°50'0 0.0
2014-Oct-25 04:31N 43°25' E 004°50'0 0.0
2014-Oct-25 03:31N 43°25' E 004°50'0 0.0
2014-Oct-25 02:31N 43°25' E 004°50'0 0.0
2014-Oct-25 01:31N 43°25' E 004°50'0 0.0
2014-Oct-25 00:31N 43°25' E 004°50'1 1.5
2014-Oct-24 23:34N 43°24' E 004°52'3 3.1
2014-Oct-24 22:31N 43°24' E 004°56'0 0.0
2014-Oct-24 21:31N 43°24' E 004°56'0 0.0
2014-Oct-24 20:31N 43°24' E 004°56'0 0.0
2014-Oct-24 19:31N 43°24' E 004°56'0 0.0
2014-Oct-24 18:31N 43°24' E 004°56'0 0.0
2014-Oct-24 17:31N 43°24' E 004°56'0 0.0
2014-Oct-24 16:31N 43°24' E 004°56'0 0.0
2014-Oct-24 15:31N 43°24' E 004°56'0 0.0
2014-Oct-24 14:31N 43°24' E 004°56'0 0.0
2014-Oct-24 13:31N 43°24' E 004°56'0 0.0
2014-Oct-24 12:31N 43°24' E 004°56'0 0.0
2014-Oct-24 11:31N 43°24' E 004°56'0 0.0
2014-Oct-24 10:31N 43°24' E 004°56'0 0.0
2014-Oct-24 09:28N 43°24' E 004°56'0 0.0
2014-Oct-24 08:31N 43°24' E 004°56'0 0.0
2014-Oct-24 07:31N 43°24' E 004°56'0 0.0
2014-Oct-24 06:31N 43°24' E 004°56'0 0.0
2014-Oct-24 05:31N 43°24' E 004°56'0 0.0
2014-Oct-24 04:31N 43°24' E 004°56'0 0.0
2014-Oct-24 03:31N 43°24' E 004°56'0 0.0
2014-Oct-24 02:28N 43°24' E 004°56'0 0.0
2014-Oct-24 01:31N 43°24' E 004°56'0 0.0
2014-Oct-24 00:31N 43°24' E 004°56'0 0.0
2014-Oct-23 23:31N 43°24' E 004°56'0 0.0
2014-Oct-23 22:31N 43°24' E 004°56'0 0.0
2014-Oct-23 21:31N 43°24' E 004°56'0 0.0
2014-Oct-23 20:31N 43°24' E 004°56'0 0.0
2014-Oct-23 19:31N 43°24' E 004°56'4 4.1
2014-Oct-23 18:33N 43°21' E 004°58'1010.2
2014-Oct-23 17:33N 43°11' E 005°02'1311.1
2014-Oct-23 16:25N 43°09' E 004°45'1211.2
2014-Oct-23 15:23N 43°07' E 004°30'1112.0
2014-Oct-23 14:28N 43°05' E 004°15'1112.1
2014-Oct-23 13:33N 43°04' E 003°60'1513.0
2014-Oct-23 12:23N 43°01' E 003°39'911.2
2014-Oct-23 11:34N 42°53' E 003°35'1110.6
2014-Oct-23 10:33N 42°43' E 003°30'1210.2
2014-Oct-23 09:24N 42°31' E 003°27'8 9.5
2014-Oct-23 08:33N 42°23' E 003°28'9 8.6
2014-Oct-23 07:31N 42°14' E 003°28'8 7.7
2014-Oct-23 06:27N 42°06' E 003°30'30111.2
2014-Oct-22 03:33N 37°56' W 000°11'1412.7
2014-Oct-22 02:27N 37°45' W 000°21'1512.6
2014-Oct-22 01:16N 37°32' W 000°32'1312.4
2014-Oct-22 00:14N 37°24' W 000°44'912.8
2014-Oct-21 23:33N 37°18' W 000°52'1412.9
2014-Oct-21 22:29N 37°09' W 001°05'3913.0
2014-Oct-21 19:29N 36°44' W 001°41'17513.2
2014-Oct-21 06:13N 36°00' W 005°12'913.2
2014-Oct-21 05:32N 35°58' W 005°23'6813.2
2014-Oct-21 00:25N 36°00' W 006°46'1112.8
2014-Oct-20 23:33N 36°03' W 006°60'1412.5
2014-Oct-20 22:26N 36°07' W 007°16'1412.8
2014-Oct-20 21:19N 36°10' W 007°33'1013.2
2014-Oct-20 20:33N 36°12' W 007°46'6412.8
2014-Oct-20 15:33N 36°27' W 009°02'7011.0
2014-Oct-20 09:11N 37°27' W 009°49'813.0
2014-Oct-20 08:33N 37°35' W 009°52'1313.0
2014-Oct-20 07:33N 37°48' W 009°55'1312.9
2014-Oct-20 06:33N 37°60' W 009°60'1312.8
2014-Oct-20 05:33N 38°12' W 010°05'1712.8
2014-Oct-20 04:16N 38°28' W 010°08'912.9
2014-Oct-20 03:32N 38°38' W 010°11'1313.3
2014-Oct-20 02:33N 38°50' W 010°12'  

Dump ship's entire track history